sensor_id;sensor_type;location;lat;lon;timestamp;P1;durP1;ratioP1;P2;durP2;ratioP2
54641;SDS011;40536;53.194;5.728;2022-08-21T00:01:02;48.97;;;45.80;;
54641;SDS011;40536;53.194;5.728;2022-08-21T00:03:31;100.28;;;95.20;;
54641;SDS011;40536;53.194;5.728;2022-08-21T00:05:57;124.63;;;117.88;;
54641;SDS011;40536;53.194;5.728;2022-08-21T00:08:23;88.10;;;83.35;;
54641;SDS011;40536;53.194;5.728;2022-08-21T00:10:49;108.97;;;103.32;;
54641;SDS011;40536;53.194;5.728;2022-08-21T00:13:15;56.47;;;53.35;;
54641;SDS011;40536;53.194;5.728;2022-08-21T00:15:42;242.63;;;230.30;;
54641;SDS011;40536;53.194;5.728;2022-08-21T00:18:08;423.08;;;400.98;;
54641;SDS011;40536;53.194;5.728;2022-08-21T00:20:36;719.42;;;673.85;;
54641;SDS011;40536;53.194;5.728;2022-08-21T00:23:03;586.35;;;552.85;;
54641;SDS011;40536;53.194;5.728;2022-08-21T00:25:29;592.50;;;557.92;;
54641;SDS011;40536;53.194;5.728;2022-08-21T00:27:56;529.15;;;500.02;;
54641;SDS011;40536;53.194;5.728;2022-08-21T00:30:22;366.02;;;348.35;;
54641;SDS011;40536;53.194;5.728;2022-08-21T00:32:51;86.68;;;82.10;;
54641;SDS011;40536;53.194;5.728;2022-08-21T00:35:20;95.05;;;90.15;;
54641;SDS011;40536;53.194;5.728;2022-08-21T00:37:49;84.35;;;80.05;;
54641;SDS011;40536;53.194;5.728;2022-08-21T00:40:16;43.80;;;40.92;;
54641;SDS011;40536;53.194;5.728;2022-08-21T00:42:43;48.05;;;45.22;;
54641;SDS011;40536;53.194;5.728;2022-08-21T00:45:10;41.67;;;39.25;;
54641;SDS011;40536;53.194;5.728;2022-08-21T00:47:36;46.13;;;43.42;;
54641;SDS011;40536;53.194;5.728;2022-08-21T00:50:03;110.00;;;104.47;;
54641;SDS011;40536;53.194;5.728;2022-08-21T00:52:31;56.08;;;52.97;;
54641;SDS011;40536;53.194;5.728;2022-08-21T00:54:59;48.40;;;45.15;;
54641;SDS011;40536;53.194;5.728;2022-08-21T00:57:28;49.45;;;46.42;;
54641;SDS011;40536;53.194;5.728;2022-08-21T00:59:57;37.60;;;35.08;;
54641;SDS011;40536;53.194;5.728;2022-08-21T01:02:25;27.25;;;24.95;;
54641;SDS011;40536;53.194;5.728;2022-08-21T01:04:51;24.75;;;22.90;;
54641;SDS011;40536;53.194;5.728;2022-08-21T01:07:16;19.05;;;17.45;;
54641;SDS011;40536;53.194;5.728;2022-08-21T01:09:43;24.90;;;23.08;;
54641;SDS011;40536;53.194;5.728;2022-08-21T01:12:10;32.63;;;30.25;;
54641;SDS011;40536;53.194;5.728;2022-08-21T01:14:37;42.70;;;40.28;;
54641;SDS011;40536;53.194;5.728;2022-08-21T01:17:05;42.72;;;39.35;;
54641;SDS011;40536;53.194;5.728;2022-08-21T01:19:31;44.03;;;41.33;;
54641;SDS011;40536;53.194;5.728;2022-08-21T01:21:57;49.55;;;46.35;;
54641;SDS011;40536;53.194;5.728;2022-08-21T01:24:24;197.35;;;187.20;;
54641;SDS011;40536;53.194;5.728;2022-08-21T01:26:50;296.25;;;280.92;;
54641;SDS011;40536;53.194;5.728;2022-08-21T01:29:32;275.38;;;262.13;;
54641;SDS011;40536;53.194;5.728;2022-08-21T01:32:03;221.55;;;210.40;;
54641;SDS011;40536;53.194;5.728;2022-08-21T01:34:36;270.90;;;258.10;;
54641;SDS011;40536;53.194;5.728;2022-08-21T01:37:04;234.13;;;223.25;;
54641;SDS011;40536;53.194;5.728;2022-08-21T01:39:30;220.00;;;209.98;;
54641;SDS011;40536;53.194;5.728;2022-08-21T01:41:55;117.30;;;111.43;;
54641;SDS011;40536;53.194;5.728;2022-08-21T01:44:22;80.80;;;76.60;;
54641;SDS011;40536;53.194;5.728;2022-08-21T01:46:49;55.55;;;52.35;;
54641;SDS011;40536;53.194;5.728;2022-08-21T01:49:15;85.80;;;81.25;;
54641;SDS011;40536;53.194;5.728;2022-08-21T01:51:41;188.45;;;179.02;;
54641;SDS011;40536;53.194;5.728;2022-08-21T01:54:07;158.52;;;150.82;;
54641;SDS011;40536;53.194;5.728;2022-08-21T01:56:52;314.63;;;299.10;;
54641;SDS011;40536;53.194;5.728;2022-08-21T01:59:20;610.58;;;573.45;;
54641;SDS011;40536;53.194;5.728;2022-08-21T02:01:48;693.05;;;650.55;;
54641;SDS011;40536;53.194;5.728;2022-08-21T02:04:14;568.85;;;536.58;;
54641;SDS011;40536;53.194;5.728;2022-08-21T02:06:40;284.00;;;269.85;;
54641;SDS011;40536;53.194;5.728;2022-08-21T02:09:06;680.13;;;638.97;;
54641;SDS011;40536;53.194;5.728;2022-08-21T02:11:34;752.30;;;704.95;;
54641;SDS011;40536;53.194;5.728;2022-08-21T02:14:00;916.60;;;852.75;;
54641;SDS011;40536;53.194;5.728;2022-08-21T02:16:27;906.05;;;845.50;;
54641;SDS011;40536;53.194;5.728;2022-08-21T02:18:53;917.20;;;855.17;;
54641;SDS011;40536;53.194;5.728;2022-08-21T02:21:19;942.03;;;871.83;;
54641;SDS011;40536;53.194;5.728;2022-08-21T02:23:44;965.83;;;896.30;;
54641;SDS011;40536;53.194;5.728;2022-08-21T02:26:10;979.53;;;907.22;;
54641;SDS011;40536;53.194;5.728;2022-08-21T02:28:37;997.50;;;923.08;;
54641;SDS011;40536;53.194;5.728;2022-08-21T02:31:03;992.67;;;912.92;;
54641;SDS011;40536;53.194;5.728;2022-08-21T02:33:30;974.35;;;902.10;;
54641;SDS011;40536;53.194;5.728;2022-08-21T02:35:56;1022.75;;;944.78;;
54641;SDS011;40536;53.194;5.728;2022-08-21T02:38:24;1015.88;;;936.58;;
54641;SDS011;40536;53.194;5.728;2022-08-21T02:40:52;966.47;;;893.63;;
54641;SDS011;40536;53.194;5.728;2022-08-21T02:43:19;1013.28;;;935.67;;
54641;SDS011;40536;53.194;5.728;2022-08-21T02:45:46;1015.50;;;935.78;;
54641;SDS011;40536;53.194;5.728;2022-08-21T02:48:15;977.70;;;906.92;;
54641;SDS011;40536;53.194;5.728;2022-08-21T02:50:44;916.42;;;851.15;;
54641;SDS011;40536;53.194;5.728;2022-08-21T02:53:12;979.00;;;907.70;;
54641;SDS011;40536;53.194;5.728;2022-08-21T02:55:41;915.70;;;850.85;;
54641;SDS011;40536;53.194;5.728;2022-08-21T02:58:08;958.10;;;889.05;;
54641;SDS011;40536;53.194;5.728;2022-08-21T03:00:35;984.10;;;906.67;;
54641;SDS011;40536;53.194;5.728;2022-08-21T03:03:01;1040.15;;;956.58;;
54641;SDS011;40536;53.194;5.728;2022-08-21T03:05:28;1031.00;;;945.83;;
54641;SDS011;40536;53.194;5.728;2022-08-21T03:07:56;1080.32;;;982.30;;
54641;SDS011;40536;53.194;5.728;2022-08-21T03:10:23;1114.82;;;999.90;;
54641;SDS011;40536;53.194;5.728;2022-08-21T03:12:50;1078.28;;;982.22;;
54641;SDS011;40536;53.194;5.728;2022-08-21T03:15:17;1064.68;;;974.05;;
54641;SDS011;40536;53.194;5.728;2022-08-21T03:17:46;1057.32;;;969.72;;
54641;SDS011;40536;53.194;5.728;2022-08-21T03:20:13;935.30;;;869.78;;
54641;SDS011;40536;53.194;5.728;2022-08-21T03:22:40;832.75;;;778.88;;
54641;SDS011;40536;53.194;5.728;2022-08-21T03:25:07;805.92;;;756.22;;
54641;SDS011;40536;53.194;5.728;2022-08-21T03:27:33;585.25;;;552.83;;
54641;SDS011;40536;53.194;5.728;2022-08-21T03:30:00;429.90;;;408.25;;
54641;SDS011;40536;53.194;5.728;2022-08-21T03:32:26;532.55;;;503.75;;
54641;SDS011;40536;53.194;5.728;2022-08-21T03:34:52;643.05;;;606.17;;
54641;SDS011;40536;53.194;5.728;2022-08-21T03:37:18;525.05;;;496.52;;
54641;SDS011;40536;53.194;5.728;2022-08-21T03:39:43;590.50;;;557.75;;
54641;SDS011;40536;53.194;5.728;2022-08-21T03:42:10;725.55;;;681.53;;
54641;SDS011;40536;53.194;5.728;2022-08-21T03:44:36;601.42;;;566.50;;
54641;SDS011;40536;53.194;5.728;2022-08-21T03:47:04;479.20;;;454.73;;
54641;SDS011;40536;53.194;5.728;2022-08-21T03:49:30;364.23;;;346.33;;
54641;SDS011;40536;53.194;5.728;2022-08-21T03:51:56;322.67;;;306.75;;
54641;SDS011;40536;53.194;5.728;2022-08-21T03:54:21;299.75;;;284.70;;
54641;SDS011;40536;53.194;5.728;2022-08-21T03:56:47;287.98;;;273.80;;
54641;SDS011;40536;53.194;5.728;2022-08-21T03:59:13;356.00;;;338.35;;
54641;SDS011;40536;53.194;5.728;2022-08-21T04:01:39;622.45;;;586.50;;
54641;SDS011;40536;53.194;5.728;2022-08-21T04:04:05;814.67;;;762.28;;
54641;SDS011;40536;53.194;5.728;2022-08-21T04:06:30;849.00;;;793.28;;
54641;SDS011;40536;53.194;5.728;2022-08-21T04:08:56;863.10;;;801.80;;
54641;SDS011;40536;53.194;5.728;2022-08-21T04:11:22;824.90;;;771.35;;
54641;SDS011;40536;53.194;5.728;2022-08-21T04:13:48;803.53;;;751.92;;
54641;SDS011;40536;53.194;5.728;2022-08-21T04:16:13;746.88;;;699.70;;
54641;SDS011;40536;53.194;5.728;2022-08-21T04:18:40;616.75;;;582.03;;
54641;SDS011;40536;53.194;5.728;2022-08-21T04:21:06;385.30;;;366.67;;
54641;SDS011;40536;53.194;5.728;2022-08-21T04:23:35;502.85;;;476.00;;
54641;SDS011;40536;53.194;5.728;2022-08-21T04:26:01;494.25;;;467.42;;
54641;SDS011;40536;53.194;5.728;2022-08-21T04:28:27;503.13;;;476.17;;
54641;SDS011;40536;53.194;5.728;2022-08-21T04:30:53;648.72;;;610.05;;
54641;SDS011;40536;53.194;5.728;2022-08-21T04:33:19;636.88;;;598.95;;
54641;SDS011;40536;53.194;5.728;2022-08-21T04:35:46;642.15;;;603.50;;
54641;SDS011;40536;53.194;5.728;2022-08-21T04:38:12;651.65;;;612.65;;
54641;SDS011;40536;53.194;5.728;2022-08-21T04:40:37;636.40;;;596.90;;
54641;SDS011;40536;53.194;5.728;2022-08-21T04:43:04;637.78;;;599.83;;
54641;SDS011;40536;53.194;5.728;2022-08-21T04:45:44;631.80;;;593.20;;
54641;SDS011;40536;53.194;5.728;2022-08-21T04:48:13;650.35;;;611.75;;
54641;SDS011;40536;53.194;5.728;2022-08-21T04:53:37;664.53;;;624.00;;
54641;SDS011;40536;53.194;5.728;2022-08-21T04:56:20;648.35;;;609.72;;
54641;SDS011;40536;53.194;5.728;2022-08-21T04:58:48;662.08;;;622.63;;
54641;SDS011;40536;53.194;5.728;2022-08-21T05:01:17;675.08;;;634.55;;
54641;SDS011;40536;53.194;5.728;2022-08-21T05:03:46;666.72;;;626.30;;
54641;SDS011;40536;53.194;5.728;2022-08-21T05:06:14;518.50;;;491.23;;
54641;SDS011;40536;53.194;5.728;2022-08-21T05:08:42;483.65;;;458.52;;
54641;SDS011;40536;53.194;5.728;2022-08-21T05:11:12;337.50;;;321.10;;
54641;SDS011;40536;53.194;5.728;2022-08-21T05:13:38;328.42;;;312.92;;
54641;SDS011;40536;53.194;5.728;2022-08-21T05:16:06;343.73;;;327.05;;
54641;SDS011;40536;53.194;5.728;2022-08-21T05:18:32;265.48;;;252.95;;
54641;SDS011;40536;53.194;5.728;2022-08-21T05:20:57;190.18;;;180.82;;
54641;SDS011;40536;53.194;5.728;2022-08-21T05:23:23;159.55;;;151.60;;
54641;SDS011;40536;53.194;5.728;2022-08-21T05:25:50;110.72;;;104.13;;
54641;SDS011;40536;53.194;5.728;2022-08-21T05:28:17;92.80;;;87.25;;
54641;SDS011;40536;53.194;5.728;2022-08-21T05:30:43;79.05;;;74.53;;
54641;SDS011;40536;53.194;5.728;2022-08-21T05:33:09;72.22;;;67.95;;
54641;SDS011;40536;53.194;5.728;2022-08-21T05:35:35;80.60;;;75.95;;
54641;SDS011;40536;53.194;5.728;2022-08-21T05:38:02;84.07;;;79.15;;
54641;SDS011;40536;53.194;5.728;2022-08-21T05:40:28;95.80;;;90.45;;
54641;SDS011;40536;53.194;5.728;2022-08-21T05:42:54;81.90;;;77.32;;
54641;SDS011;40536;53.194;5.728;2022-08-21T05:45:21;94.63;;;89.13;;
54641;SDS011;40536;53.194;5.728;2022-08-21T05:47:48;96.63;;;91.63;;
54641;SDS011;40536;53.194;5.728;2022-08-21T05:50:14;101.18;;;95.40;;
54641;SDS011;40536;53.194;5.728;2022-08-21T05:52:39;116.03;;;110.13;;
54641;SDS011;40536;53.194;5.728;2022-08-21T05:55:05;124.18;;;118.22;;
54641;SDS011;40536;53.194;5.728;2022-08-21T05:57:31;132.25;;;125.60;;
54641;SDS011;40536;53.194;5.728;2022-08-21T05:59:56;126.13;;;119.72;;
54641;SDS011;40536;53.194;5.728;2022-08-21T06:02:22;149.52;;;141.68;;
54641;SDS011;40536;53.194;5.728;2022-08-21T06:04:48;196.18;;;186.63;;
54641;SDS011;40536;53.194;5.728;2022-08-21T06:07:13;223.60;;;213.23;;
54641;SDS011;40536;53.194;5.728;2022-08-21T06:09:40;142.20;;;133.40;;
54641;SDS011;40536;53.194;5.728;2022-08-21T06:12:06;100.72;;;94.03;;
54641;SDS011;40536;53.194;5.728;2022-08-21T06:14:34;57.10;;;53.30;;
54641;SDS011;40536;53.194;5.728;2022-08-21T06:17:01;48.03;;;45.10;;
54641;SDS011;40536;53.194;5.728;2022-08-21T06:19:31;72.25;;;67.00;;
54641;SDS011;40536;53.194;5.728;2022-08-21T06:21:57;64.63;;;60.47;;
54641;SDS011;40536;53.194;5.728;2022-08-21T06:24:23;70.80;;;65.68;;
54641;SDS011;40536;53.194;5.728;2022-08-21T06:26:49;52.50;;;48.97;;
54641;SDS011;40536;53.194;5.728;2022-08-21T06:29:15;62.83;;;58.10;;
54641;SDS011;40536;53.194;5.728;2022-08-21T06:31:42;49.58;;;45.75;;
54641;SDS011;40536;53.194;5.728;2022-08-21T06:34:09;53.30;;;48.92;;
54641;SDS011;40536;53.194;5.728;2022-08-21T06:36:35;33.17;;;30.00;;
54641;SDS011;40536;53.194;5.728;2022-08-21T06:39:02;32.75;;;30.25;;
54641;SDS011;40536;53.194;5.728;2022-08-21T06:41:28;31.05;;;28.65;;
54641;SDS011;40536;53.194;5.728;2022-08-21T06:43:54;20.55;;;18.50;;
54641;SDS011;40536;53.194;5.728;2022-08-21T06:46:20;18.55;;;15.95;;
54641;SDS011;40536;53.194;5.728;2022-08-21T06:48:47;17.50;;;15.85;;
54641;SDS011;40536;53.194;5.728;2022-08-21T06:51:12;14.75;;;13.25;;
54641;SDS011;40536;53.194;5.728;2022-08-21T06:53:38;14.43;;;8.85;;
54641;SDS011;40536;53.194;5.728;2022-08-21T06:56:04;16.52;;;13.40;;
54641;SDS011;40536;53.194;5.728;2022-08-21T06:58:30;14.65;;;12.80;;
54641;SDS011;40536;53.194;5.728;2022-08-21T07:00:55;17.25;;;11.63;;
54641;SDS011;40536;53.194;5.728;2022-08-21T07:05:49;11.70;;;8.98;;
54641;SDS011;40536;53.194;5.728;2022-08-21T07:08:15;14.18;;;10.10;;
54641;SDS011;40536;53.194;5.728;2022-08-21T07:10:41;13.23;;;10.38;;
54641;SDS011;40536;53.194;5.728;2022-08-21T07:13:07;16.92;;;11.35;;
54641;SDS011;40536;53.194;5.728;2022-08-21T07:15:33;14.50;;;10.82;;
54641;SDS011;40536;53.194;5.728;2022-08-21T07:17:58;13.60;;;9.30;;
54641;SDS011;40536;53.194;5.728;2022-08-21T07:20:25;14.27;;;7.78;;
54641;SDS011;40536;53.194;5.728;2022-08-21T07:22:55;14.57;;;8.63;;
54641;SDS011;40536;53.194;5.728;2022-08-21T07:25:24;12.40;;;8.45;;
54641;SDS011;40536;53.194;5.728;2022-08-21T07:27:50;13.68;;;9.15;;
54641;SDS011;40536;53.194;5.728;2022-08-21T07:30:15;12.95;;;9.68;;
54641;SDS011;40536;53.194;5.728;2022-08-21T07:32:41;12.90;;;7.90;;
54641;SDS011;40536;53.194;5.728;2022-08-21T07:35:07;13.02;;;6.82;;
54641;SDS011;40536;53.194;5.728;2022-08-21T07:37:33;13.27;;;6.55;;
54641;SDS011;40536;53.194;5.728;2022-08-21T07:39:58;12.73;;;6.10;;
54641;SDS011;40536;53.194;5.728;2022-08-21T07:42:24;12.40;;;6.03;;
54641;SDS011;40536;53.194;5.728;2022-08-21T07:44:50;11.13;;;6.45;;
54641;SDS011;40536;53.194;5.728;2022-08-21T07:47:15;12.10;;;7.45;;
54641;SDS011;40536;53.194;5.728;2022-08-21T07:49:41;13.73;;;11.88;;
54641;SDS011;40536;53.194;5.728;2022-08-21T07:52:06;14.77;;;12.75;;
54641;SDS011;40536;53.194;5.728;2022-08-21T07:54:32;14.00;;;12.60;;
54641;SDS011;40536;53.194;5.728;2022-08-21T07:56:58;19.77;;;17.83;;
54641;SDS011;40536;53.194;5.728;2022-08-21T07:59:24;33.50;;;31.08;;
54641;SDS011;40536;53.194;5.728;2022-08-21T08:01:49;32.25;;;29.90;;
54641;SDS011;40536;53.194;5.728;2022-08-21T08:04:15;33.63;;;31.15;;
54641;SDS011;40536;53.194;5.728;2022-08-21T08:06:41;45.13;;;42.35;;
54641;SDS011;40536;53.194;5.728;2022-08-21T08:09:07;69.63;;;65.75;;
54641;SDS011;40536;53.194;5.728;2022-08-21T08:11:32;69.57;;;65.68;;
54641;SDS011;40536;53.194;5.728;2022-08-21T08:13:58;60.92;;;57.45;;
54641;SDS011;40536;53.194;5.728;2022-08-21T08:16:24;59.15;;;55.45;;
54641;SDS011;40536;53.194;5.728;2022-08-21T08:18:50;50.03;;;47.05;;
54641;SDS011;40536;53.194;5.728;2022-08-21T08:21:16;46.55;;;43.75;;
54641;SDS011;40536;53.194;5.728;2022-08-21T08:23:45;53.22;;;50.45;;
54641;SDS011;40536;53.194;5.728;2022-08-21T08:26:11;63.33;;;59.53;;
54641;SDS011;40536;53.194;5.728;2022-08-21T08:28:37;55.75;;;52.40;;
54641;SDS011;40536;53.194;5.728;2022-08-21T08:31:03;48.85;;;45.17;;
54641;SDS011;40536;53.194;5.728;2022-08-21T08:33:28;16.52;;;13.93;;
54641;SDS011;40536;53.194;5.728;2022-08-21T08:35:54;24.38;;;22.50;;
54641;SDS011;40536;53.194;5.728;2022-08-21T08:38:21;23.23;;;19.02;;
54641;SDS011;40536;53.194;5.728;2022-08-21T08:40:51;11.02;;;8.07;;
54641;SDS011;40536;53.194;5.728;2022-08-21T08:43:21;10.98;;;7.93;;
54641;SDS011;40536;53.194;5.728;2022-08-21T08:45:50;18.90;;;10.90;;
54641;SDS011;40536;53.194;5.728;2022-08-21T08:48:31;13.95;;;7.13;;
54641;SDS011;40536;53.194;5.728;2022-08-21T08:51:02;14.40;;;9.23;;
54641;SDS011;40536;53.194;5.728;2022-08-21T08:53:37;14.27;;;7.88;;
54641;SDS011;40536;53.194;5.728;2022-08-21T08:56:11;13.27;;;11.98;;
54641;SDS011;40536;53.194;5.728;2022-08-21T08:58:38;15.07;;;13.55;;
54641;SDS011;40536;53.194;5.728;2022-08-21T09:01:11;12.80;;;11.15;;
54641;SDS011;40536;53.194;5.728;2022-08-21T09:03:42;9.68;;;6.72;;
54641;SDS011;40536;53.194;5.728;2022-08-21T09:17:01;11.35;;;5.43;;
54641;SDS011;40536;53.194;5.728;2022-08-21T09:19:47;7.95;;;5.35;;
54641;SDS011;40536;53.194;5.728;2022-08-21T09:25:10;10.93;;;5.50;;
54641;SDS011;40536;53.194;5.728;2022-08-21T09:27:42;11.45;;;6.75;;
54641;SDS011;40536;53.194;5.728;2022-08-21T09:30:08;9.93;;;7.15;;
54641;SDS011;40536;53.194;5.728;2022-08-21T09:32:35;13.25;;;6.88;;
54641;SDS011;40536;53.194;5.728;2022-08-21T09:35:09;11.48;;;7.65;;
54641;SDS011;40536;53.194;5.728;2022-08-21T09:37:49;9.32;;;5.65;;
54641;SDS011;40536;53.194;5.728;2022-08-21T09:43:05;9.05;;;5.78;;
54641;SDS011;40536;53.194;5.728;2022-08-21T09:45:42;10.77;;;5.68;;
54641;SDS011;40536;53.194;5.728;2022-08-21T09:48:12;9.82;;;5.13;;
54641;SDS011;40536;53.194;5.728;2022-08-21T09:50:46;14.45;;;6.32;;
54641;SDS011;40536;53.194;5.728;2022-08-21T09:53:31;7.63;;;4.97;;
54641;SDS011;40536;53.194;5.728;2022-08-21T09:55:58;9.68;;;5.30;;
54641;SDS011;40536;53.194;5.728;2022-08-21T09:58:46;8.10;;;3.88;;
54641;SDS011;40536;53.194;5.728;2022-08-21T10:01:18;8.82;;;4.00;;
54641;SDS011;40536;53.194;5.728;2022-08-21T10:03:46;7.30;;;4.63;;
54641;SDS011;40536;53.194;5.728;2022-08-21T10:06:23;6.70;;;3.90;;
54641;SDS011;40536;53.194;5.728;2022-08-21T10:09:02;6.35;;;4.47;;
54641;SDS011;40536;53.194;5.728;2022-08-21T10:11:39;7.80;;;4.32;;
54641;SDS011;40536;53.194;5.728;2022-08-21T10:22:08;7.70;;;3.38;;
54641;SDS011;40536;53.194;5.728;2022-08-21T10:27:26;8.80;;;3.78;;
54641;SDS011;40536;53.194;5.728;2022-08-21T10:30:03;6.00;;;3.47;;
54641;SDS011;40536;53.194;5.728;2022-08-21T10:32:47;7.60;;;3.47;;
54641;SDS011;40536;53.194;5.728;2022-08-21T10:35:29;7.60;;;3.30;;
54641;SDS011;40536;53.194;5.728;2022-08-21T10:40:52;8.30;;;3.47;;
54641;SDS011;40536;53.194;5.728;2022-08-21T10:51:41;8.52;;;3.50;;
54641;SDS011;40536;53.194;5.728;2022-08-21T10:57:07;6.85;;;3.28;;
54641;SDS011;40536;53.194;5.728;2022-08-21T10:59:55;9.43;;;4.15;;
54641;SDS011;40536;53.194;5.728;2022-08-21T11:02:27;6.03;;;3.78;;
54641;SDS011;40536;53.194;5.728;2022-08-21T11:07:46;7.13;;;3.40;;
54641;SDS011;40536;53.194;5.728;2022-08-21T11:10:15;6.53;;;3.50;;
54641;SDS011;40536;53.194;5.728;2022-08-21T11:12:56;9.18;;;3.53;;
54641;SDS011;40536;53.194;5.728;2022-08-21T11:15:36;9.43;;;3.67;;
54641;SDS011;40536;53.194;5.728;2022-08-21T11:29:35;10.73;;;4.70;;
54641;SDS011;40536;53.194;5.728;2022-08-21T11:45:45;9.70;;;3.50;;
54641;SDS011;40536;53.194;5.728;2022-08-21T11:48:40;7.40;;;3.75;;
54641;SDS011;40536;53.194;5.728;2022-08-21T11:51:22;9.45;;;3.55;;
54641;SDS011;40536;53.194;5.728;2022-08-21T11:54:25;9.70;;;4.03;;
54641;SDS011;40536;53.194;5.728;2022-08-21T11:57:25;8.93;;;3.80;;
54641;SDS011;40536;53.194;5.728;2022-08-21T12:02:59;8.10;;;3.80;;
54641;SDS011;40536;53.194;5.728;2022-08-21T12:05:36;6.70;;;3.60;;
54641;SDS011;40536;53.194;5.728;2022-08-21T12:11:22;6.95;;;3.70;;
54641;SDS011;40536;53.194;5.728;2022-08-21T12:16:34;7.63;;;3.90;;
54641;SDS011;40536;53.194;5.728;2022-08-21T12:19:05;8.00;;;3.42;;
54641;SDS011;40536;53.194;5.728;2022-08-21T12:21:34;7.05;;;3.83;;
54641;SDS011;40536;53.194;5.728;2022-08-21T12:26:48;6.15;;;3.60;;
54641;SDS011;40536;53.194;5.728;2022-08-21T12:29:22;7.45;;;3.67;;
54641;SDS011;40536;53.194;5.728;2022-08-21T12:32:00;7.95;;;3.58;;
54641;SDS011;40536;53.194;5.728;2022-08-21T12:34:32;7.00;;;3.65;;
54641;SDS011;40536;53.194;5.728;2022-08-21T12:37:14;7.18;;;3.00;;
54641;SDS011;40536;53.194;5.728;2022-08-21T12:39:46;9.60;;;3.83;;
54641;SDS011;40536;53.194;5.728;2022-08-21T12:44:56;8.65;;;3.97;;
54641;SDS011;40536;53.194;5.728;2022-08-21T12:47:34;8.30;;;3.13;;
54641;SDS011;40536;53.194;5.728;2022-08-21T12:50:15;7.13;;;3.20;;
54641;SDS011;40536;53.194;5.728;2022-08-21T12:52:59;6.47;;;3.20;;
54641;SDS011;40536;53.194;5.728;2022-08-21T12:55:28;6.72;;;2.83;;
54641;SDS011;40536;53.194;5.728;2022-08-21T12:57:55;10.02;;;3.17;;
54641;SDS011;40536;53.194;5.728;2022-08-21T13:00:22;5.63;;;2.95;;
54641;SDS011;40536;53.194;5.728;2022-08-21T13:02:50;8.07;;;3.67;;
54641;SDS011;40536;53.194;5.728;2022-08-21T13:05:28;7.10;;;3.53;;
54641;SDS011;40536;53.194;5.728;2022-08-21T13:07:54;8.10;;;3.85;;
54641;SDS011;40536;53.194;5.728;2022-08-21T13:10:31;7.65;;;3.28;;
54641;SDS011;40536;53.194;5.728;2022-08-21T13:13:07;6.68;;;3.35;;
54641;SDS011;40536;53.194;5.728;2022-08-21T13:15:41;7.00;;;3.45;;
54641;SDS011;40536;53.194;5.728;2022-08-21T13:18:07;6.97;;;3.22;;
54641;SDS011;40536;53.194;5.728;2022-08-21T13:20:37;6.28;;;2.92;;
54641;SDS011;40536;53.194;5.728;2022-08-21T13:25:48;7.68;;;3.53;;
54641;SDS011;40536;53.194;5.728;2022-08-21T13:28:14;7.78;;;3.30;;
54641;SDS011;40536;53.194;5.728;2022-08-21T13:30:47;7.45;;;3.35;;
54641;SDS011;40536;53.194;5.728;2022-08-21T13:33:15;6.78;;;3.10;;
54641;SDS011;40536;53.194;5.728;2022-08-21T13:38:25;9.10;;;3.85;;
54641;SDS011;40536;53.194;5.728;2022-08-21T13:40:55;9.88;;;3.50;;
54641;SDS011;40536;53.194;5.728;2022-08-21T13:43:47;7.53;;;3.47;;
54641;SDS011;40536;53.194;5.728;2022-08-21T13:46:15;7.65;;;3.30;;
54641;SDS011;40536;53.194;5.728;2022-08-21T13:48:41;7.18;;;3.75;;
54641;SDS011;40536;53.194;5.728;2022-08-21T13:51:08;9.23;;;3.80;;
54641;SDS011;40536;53.194;5.728;2022-08-21T13:56:09;8.85;;;3.65;;
54641;SDS011;40536;53.194;5.728;2022-08-21T13:58:52;9.35;;;3.35;;
54641;SDS011;40536;53.194;5.728;2022-08-21T14:01:21;9.40;;;3.95;;
54641;SDS011;40536;53.194;5.728;2022-08-21T14:03:50;7.82;;;3.67;;
54641;SDS011;40536;53.194;5.728;2022-08-21T14:06:23;9.43;;;4.30;;
54641;SDS011;40536;53.194;5.728;2022-08-21T14:08:57;6.78;;;3.67;;
54641;SDS011;40536;53.194;5.728;2022-08-21T14:11:26;9.32;;;3.78;;
54641;SDS011;40536;53.194;5.728;2022-08-21T14:13:58;8.50;;;4.43;;
54641;SDS011;40536;53.194;5.728;2022-08-21T14:19:48;12.05;;;4.35;;
54641;SDS011;40536;53.194;5.728;2022-08-21T14:25:04;8.82;;;4.50;;
54641;SDS011;40536;53.194;5.728;2022-08-21T14:27:31;7.78;;;4.25;;
54641;SDS011;40536;53.194;5.728;2022-08-21T14:30:00;11.55;;;5.10;;
54641;SDS011;40536;53.194;5.728;2022-08-21T14:32:36;10.00;;;5.82;;
54641;SDS011;40536;53.194;5.728;2022-08-21T14:35:04;13.02;;;5.15;;
54641;SDS011;40536;53.194;5.728;2022-08-21T14:37:31;8.85;;;4.30;;
54641;SDS011;40536;53.194;5.728;2022-08-21T14:39:57;12.25;;;4.97;;
54641;SDS011;40536;53.194;5.728;2022-08-21T14:42:23;9.35;;;4.40;;
54641;SDS011;40536;53.194;5.728;2022-08-21T14:44:48;9.95;;;4.90;;
54641;SDS011;40536;53.194;5.728;2022-08-21T14:47:14;11.27;;;4.53;;
54641;SDS011;40536;53.194;5.728;2022-08-21T14:49:40;8.57;;;4.88;;
54641;SDS011;40536;53.194;5.728;2022-08-21T14:52:06;9.50;;;4.90;;
54641;SDS011;40536;53.194;5.728;2022-08-21T14:54:32;11.50;;;5.35;;
54641;SDS011;40536;53.194;5.728;2022-08-21T14:56:58;9.55;;;4.97;;
54641;SDS011;40536;53.194;5.728;2022-08-21T14:59:26;6.57;;;4.82;;
54641;SDS011;40536;53.194;5.728;2022-08-21T15:01:52;9.73;;;5.82;;
54641;SDS011;40536;53.194;5.728;2022-08-21T15:04:18;10.32;;;5.80;;
54641;SDS011;40536;53.194;5.728;2022-08-21T15:06:44;10.55;;;5.25;;
54641;SDS011;40536;53.194;5.728;2022-08-21T15:09:09;8.75;;;6.32;;
54641;SDS011;40536;53.194;5.728;2022-08-21T15:11:35;6.82;;;5.22;;
54641;SDS011;40536;53.194;5.728;2022-08-21T15:14:03;10.73;;;5.47;;
54641;SDS011;40536;53.194;5.728;2022-08-21T15:16:31;11.38;;;6.00;;
54641;SDS011;40536;53.194;5.728;2022-08-21T15:18:59;11.23;;;5.32;;
54641;SDS011;40536;53.194;5.728;2022-08-21T15:21:24;9.45;;;5.78;;
54641;SDS011;40536;53.194;5.728;2022-08-21T15:23:50;8.85;;;6.38;;
54641;SDS011;40536;53.194;5.728;2022-08-21T15:26:16;9.63;;;4.97;;
54641;SDS011;40536;53.194;5.728;2022-08-21T15:28:41;8.57;;;6.55;;
54641;SDS011;40536;53.194;5.728;2022-08-21T15:31:07;8.43;;;5.10;;
54641;SDS011;40536;53.194;5.728;2022-08-21T15:33:33;8.30;;;5.70;;
54641;SDS011;40536;53.194;5.728;2022-08-21T15:35:59;12.20;;;5.95;;
54641;SDS011;40536;53.194;5.728;2022-08-21T15:38:25;10.13;;;5.95;;
54641;SDS011;40536;53.194;5.728;2022-08-21T15:40:51;8.60;;;5.53;;
54641;SDS011;40536;53.194;5.728;2022-08-21T15:45:53;9.70;;;4.90;;
54641;SDS011;40536;53.194;5.728;2022-08-21T15:48:19;11.50;;;5.25;;
54641;SDS011;40536;53.194;5.728;2022-08-21T15:50:45;9.10;;;5.53;;
54641;SDS011;40536;53.194;5.728;2022-08-21T15:53:10;8.25;;;5.43;;
54641;SDS011;40536;53.194;5.728;2022-08-21T15:55:36;10.25;;;5.72;;
54641;SDS011;40536;53.194;5.728;2022-08-21T15:58:02;10.73;;;6.65;;
54641;SDS011;40536;53.194;5.728;2022-08-21T16:00:28;10.30;;;6.32;;
54641;SDS011;40536;53.194;5.728;2022-08-21T16:02:57;11.63;;;6.38;;
54641;SDS011;40536;53.194;5.728;2022-08-21T16:05:24;9.32;;;5.30;;
54641;SDS011;40536;53.194;5.728;2022-08-21T16:07:50;13.00;;;6.53;;
54641;SDS011;40536;53.194;5.728;2022-08-21T16:10:17;8.00;;;5.72;;
54641;SDS011;40536;53.194;5.728;2022-08-21T16:12:49;14.07;;;6.00;;
54641;SDS011;40536;53.194;5.728;2022-08-21T16:15:18;9.40;;;6.50;;